createdAt,value
2018-11-23T00:01:45.847Z,43.87
2018-11-23T00:04:14.213Z,43.10
2018-11-23T00:06:42.565Z,42.07
2018-11-23T00:09:11.691Z,43.03
2018-11-23T00:11:40.047Z,42.33
2018-11-23T00:14:08.427Z,42.87
2018-11-23T00:16:36.792Z,43.60
2018-11-23T00:19:05.206Z,42.47
2018-11-23T00:21:33.561Z,40.83
2018-11-23T00:24:01.911Z,41.70
2018-11-23T00:26:30.255Z,40.17
2018-11-23T00:28:58.599Z,42.23
2018-11-23T00:31:26.986Z,41.60
2018-11-23T00:33:55.323Z,41.80
2018-11-23T00:36:23.680Z,41.07
2018-11-23T00:38:52.147Z,42.20
2018-11-23T00:41:20.489Z,40.67
2018-11-23T00:43:48.859Z,41.37
2018-11-23T00:46:17.291Z,40.77
2018-11-23T00:48:45.643Z,41.10
2018-11-23T00:51:13.999Z,40.33
2018-11-23T00:53:43.131Z,41.03
2018-11-23T00:56:11.475Z,40.57
2018-11-23T00:58:39.838Z,40.73
2018-11-23T01:01:08.192Z,41.67
2018-11-23T01:03:36.569Z,41.43
2018-11-23T01:06:04.906Z,41.73
2018-11-23T01:08:33.244Z,40.77
2018-11-23T01:11:02.511Z,39.67
2018-11-23T01:13:30.907Z,40.87
2018-11-23T01:15:59.266Z,42.37
2018-11-23T01:18:27.597Z,42.77
2018-11-23T01:20:56.743Z,44.07
2018-11-23T01:23:25.096Z,44.10
2018-11-23T01:25:53.502Z,43.13
2018-11-23T01:28:21.894Z,41.50
2018-11-23T01:30:50.267Z,43.60
2018-11-23T01:33:18.598Z,42.17
2018-11-23T01:35:47.764Z,43.60
2018-11-23T01:38:16.109Z,43.93
2018-11-23T01:40:44.459Z,44.27
2018-11-23T01:43:13.664Z,47.63
2018-11-23T01:45:42.033Z,44.10
2018-11-23T01:48:11.169Z,44.17
2018-11-23T01:50:39.513Z,44.70
2018-11-23T01:53:07.884Z,44.80
2018-11-23T01:55:36.254Z,45.00
2018-11-23T01:58:04.685Z,44.57
2018-11-23T02:00:33.128Z,45.23
2018-11-23T02:03:02.260Z,45.90
2018-11-23T02:05:30.639Z,45.67
2018-11-23T02:07:58.996Z,44.67
2018-11-23T02:10:27.349Z,45.30
2018-11-23T02:12:55.725Z,45.60
2018-11-23T02:15:24.158Z,44.40
2018-11-23T02:17:52.503Z,45.93
2018-11-23T02:20:20.850Z,42.33
2018-11-23T02:22:50.261Z,46.87
2018-11-23T02:25:18.623Z,44.30
2018-11-23T02:27:47.049Z,46.77
2018-11-23T02:30:15.393Z,44.33
2018-11-23T02:32:43.763Z,43.93
2018-11-23T02:35:12.118Z,44.50
2018-11-23T02:37:40.485Z,44.87
2018-11-23T02:40:08.877Z,45.47
2018-11-23T02:42:37.218Z,47.53
2018-11-23T02:45:06.347Z,45.53
2018-11-23T02:47:34.875Z,47.83
2018-11-23T02:50:03.261Z,46.10
2018-11-23T02:52:31.611Z,47.73
2018-11-23T02:54:59.951Z,45.87
2018-11-23T02:57:28.311Z,46.37
2018-11-23T02:59:57.427Z,47.37
2018-11-23T03:02:25.845Z,48.57
2018-11-23T03:04:54.185Z,47.10
2018-11-23T03:07:22.565Z,45.80
2018-11-23T03:09:50.909Z,45.20
2018-11-23T03:12:19.341Z,45.30
2018-11-23T03:14:47.683Z,45.87
2018-11-23T03:17:16.799Z,46.47
2018-11-23T03:19:45.298Z,48.40
2018-11-23T03:22:13.625Z,44.60
2018-11-23T03:24:41.981Z,46.40
2018-11-23T03:27:10.337Z,45.97
2018-11-23T03:29:38.693Z,46.13
2018-11-23T03:32:07.042Z,47.70
2018-11-23T03:34:35.420Z,47.37
2018-11-23T03:37:03.798Z,45.43
2018-11-23T03:39:34.221Z,46.10
2018-11-23T03:42:00.491Z,47.27
2018-11-23T03:44:28.826Z,45.53
2018-11-23T03:46:57.172Z,45.63
2018-11-23T03:49:25.525Z,44.37
2018-11-23T03:51:53.864Z,43.27
2018-11-23T03:54:22.214Z,44.13
2018-11-23T03:56:50.556Z,43.07
2018-11-23T03:59:18.914Z,44.77
2018-11-23T04:01:47.273Z,43.13
2018-11-23T04:04:15.604Z,42.80
2018-11-23T04:06:43.942Z,42.90
2018-11-23T04:09:12.322Z,42.33
2018-11-23T04:11:40.662Z,42.90
2018-11-23T04:14:09.054Z,43.47
2018-11-23T04:16:37.401Z,43.97
2018-11-23T04:19:05.798Z,44.13
2018-11-23T04:21:34.173Z,43.13
2018-11-23T04:24:04.818Z,42.57
2018-11-23T04:26:33.988Z,43.73
2018-11-23T04:29:02.419Z,42.50
2018-11-23T04:31:30.768Z,44.17
2018-11-23T04:33:59.120Z,43.63
2018-11-23T04:36:27.492Z,45.53
2018-11-23T04:38:55.866Z,43.73
2018-11-23T04:41:24.341Z,43.00
2018-11-23T04:43:52.677Z,42.37
2018-11-23T04:46:21.029Z,44.20
2018-11-23T04:48:49.377Z,44.27
2018-11-23T04:51:18.488Z,46.13
2018-11-23T04:53:46.855Z,46.87
2018-11-23T04:56:15.202Z,49.13
2018-11-23T04:58:43.709Z,45.17
2018-11-23T05:01:12.059Z,45.90
2018-11-23T05:03:40.407Z,43.23
2018-11-23T05:06:08.832Z,45.50
2018-11-23T05:08:37.170Z,47.10
2018-11-23T05:11:05.551Z,43.30
2018-11-23T05:13:33.885Z,42.57
2018-11-23T05:16:03.045Z,44.10
2018-11-23T05:18:31.500Z,42.83
2018-11-23T05:20:59.921Z,42.23
2018-11-23T05:23:28.294Z,43.70
2018-11-23T05:25:56.639Z,44.33
2018-11-23T05:28:24.978Z,43.60
2018-11-23T05:30:54.106Z,44.10
2018-11-23T05:33:22.500Z,43.97
2018-11-23T05:35:50.976Z,43.63
2018-11-23T05:38:19.331Z,44.17
2018-11-23T05:40:48.367Z,41.27
2018-11-23T05:43:16.731Z,43.53
2018-11-23T05:45:45.099Z,43.37
2018-11-23T05:48:13.483Z,43.50
2018-11-23T05:50:41.855Z,45.10
2018-11-23T05:53:10.227Z,46.20
2018-11-23T05:55:39.399Z,44.80
2018-11-23T05:58:07.796Z,43.20
2018-11-23T06:00:36.139Z,42.83
2018-11-23T06:03:04.507Z,44.40
2018-11-23T06:05:32.870Z,44.27
2018-11-23T06:08:01.269Z,41.43
2018-11-23T06:10:29.611Z,46.73
2018-11-23T06:12:58.011Z,46.13
2018-11-23T06:15:26.325Z,43.67
2018-11-23T06:17:54.691Z,42.50
2018-11-23T06:20:23.062Z,44.33
2018-11-23T06:22:51.410Z,46.93
2018-11-23T06:25:19.762Z,43.37
2018-11-23T06:27:48.873Z,43.50
2018-11-23T06:30:17.232Z,43.53
2018-11-23T06:35:52.147Z,56.28
2018-11-23T06:38:20.633Z,46.00
2018-11-23T06:40:48.987Z,43.63
2018-11-23T06:43:17.340Z,43.90
2018-11-23T06:45:45.687Z,44.33
2018-11-23T06:48:14.126Z,45.10
2018-11-23T06:50:42.477Z,45.47
2018-11-23T06:53:10.822Z,43.93
2018-11-23T06:55:39.195Z,42.43
2018-11-23T06:58:07.539Z,42.17
2018-11-23T07:00:35.904Z,45.63
2018-11-23T07:03:04.250Z,43.13
2018-11-23T07:05:33.442Z,43.67
2018-11-23T07:08:01.885Z,41.47
2018-11-23T07:10:30.303Z,42.57
2018-11-23T07:12:58.624Z,44.90
2018-11-23T07:15:26.965Z,44.33
2018-11-23T07:17:55.377Z,43.03
2018-11-23T07:20:23.719Z,47.03
2018-11-23T07:22:52.151Z,44.53
2018-11-23T07:25:20.544Z,43.13
2018-11-23T07:27:48.904Z,44.17
2018-11-23T07:30:17.288Z,42.57
2018-11-23T07:32:45.675Z,43.03
2018-11-23T07:35:14.002Z,41.20
2018-11-23T07:37:43.216Z,39.70
2018-11-23T07:40:23.496Z,39.80
2018-11-23T07:42:51.878Z,42.47
2018-11-23T07:45:20.229Z,42.23
2018-11-23T07:47:49.389Z,41.63
2018-11-23T07:50:17.734Z,41.40
2018-11-23T07:52:46.095Z,40.67
2018-11-23T07:55:14.891Z,41.07
2018-11-23T07:57:43.296Z,40.80
2018-11-23T08:00:11.666Z,41.23
2018-11-23T08:02:40.132Z,41.17
2018-11-23T08:05:08.487Z,40.90
2018-11-23T08:07:37.611Z,40.17
2018-11-23T08:10:05.500Z,40.43
2018-11-23T08:12:33.869Z,39.37
2018-11-23T08:15:02.271Z,38.07
2018-11-23T08:17:30.921Z,36.97
2018-11-23T08:19:59.448Z,37.70
2018-11-23T08:22:27.788Z,38.40
2018-11-23T08:24:56.134Z,38.50
2018-11-23T08:27:25.357Z,37.87
2018-11-23T08:29:53.717Z,35.90
2018-11-23T08:32:22.939Z,37.13
2018-11-23T08:34:51.527Z,36.73
2018-11-23T08:37:19.984Z,36.57
2018-11-23T08:39:48.354Z,36.47
2018-11-23T08:42:16.758Z,36.87
2018-11-23T08:44:45.980Z,36.30
2018-11-23T08:47:14.335Z,37.30
2018-11-23T08:49:42.707Z,36.20
2018-11-23T08:52:11.828Z,35.13
2018-11-23T08:54:40.200Z,36.07
2018-11-23T08:57:08.551Z,36.33
2018-11-23T08:59:37.668Z,34.90
2018-11-23T09:02:06.277Z,36.60
2018-11-23T09:04:34.879Z,36.27
2018-11-23T09:07:03.253Z,36.77
2018-11-23T09:09:31.597Z,36.73
2018-11-23T09:12:00.178Z,42.43
2018-11-23T09:14:28.532Z,36.33
2018-11-23T09:16:57.638Z,37.20
2018-11-23T09:19:26.764Z,36.60
2018-11-23T09:21:55.111Z,35.40
2018-11-23T09:24:24.235Z,35.70
2018-11-23T09:26:52.639Z,35.23
2018-11-23T09:29:21.622Z,35.70
2018-11-23T09:31:49.606Z,34.67
2018-11-23T09:34:17.968Z,34.40
2018-11-23T09:36:46.299Z,35.40
2018-11-23T09:39:14.633Z,35.23
2018-11-23T09:41:43.128Z,36.43
2018-11-23T09:44:11.491Z,35.83
2018-11-23T09:46:39.953Z,34.17
2018-11-23T09:49:08.316Z,39.00
2018-11-23T09:51:36.680Z,39.30
2018-11-23T09:54:05.057Z,35.00
2018-11-23T09:56:34.188Z,36.60
2018-11-23T09:59:02.539Z,35.30
2018-11-23T10:01:31.189Z,34.77
2018-11-23T10:03:59.559Z,35.13
2018-11-23T10:06:28.239Z,34.47
2018-11-23T10:08:56.621Z,32.90
2018-11-23T10:11:24.958Z,33.87
2018-11-23T10:13:53.316Z,33.77
2018-11-23T10:16:21.667Z,32.27
2018-11-23T10:18:50.050Z,32.97
2018-11-23T10:21:18.414Z,33.63
2018-11-23T10:23:46.792Z,31.90
2018-11-23T10:26:15.166Z,31.20
2018-11-23T10:28:43.546Z,32.20
2018-11-23T10:31:11.884Z,32.70
2018-11-23T10:33:41.017Z,30.63
2018-11-23T10:36:09.371Z,30.17
2018-11-23T10:38:37.733Z,29.90
2018-11-23T10:41:06.166Z,30.40
2018-11-23T10:43:34.509Z,26.43
2018-11-23T10:46:04.817Z,26.37
2018-11-23T10:48:33.171Z,25.93
2018-11-23T10:51:01.524Z,29.37
2018-11-23T10:53:29.959Z,30.87
2018-11-23T10:55:58.487Z,26.33
2018-11-23T10:58:26.833Z,25.83
2018-11-23T11:00:55.614Z,25.63
2018-11-23T11:03:25.172Z,25.20
2018-11-23T11:05:54.227Z,25.77
2018-11-23T11:08:21.913Z,26.13
2018-11-23T11:10:51.423Z,25.87
2018-11-23T11:13:20.158Z,26.40
2018-11-23T11:15:48.539Z,27.63
2018-11-23T11:18:18.032Z,25.80
2018-11-23T11:20:46.504Z,26.67
2018-11-23T11:23:16.345Z,27.33
2018-11-23T11:25:44.824Z,27.00
2018-11-23T11:28:13.127Z,27.53
2018-11-23T11:30:41.519Z,26.17
2018-11-23T11:33:09.906Z,26.63
2018-11-23T11:35:38.247Z,26.77
2018-11-23T11:38:07.359Z,27.00
2018-11-23T11:40:35.752Z,26.43
2018-11-23T11:43:04.105Z,26.13
2018-11-23T11:45:33.237Z,25.07
2018-11-23T11:48:01.619Z,25.13
2018-11-23T11:50:29.989Z,26.33
2018-11-23T11:52:58.366Z,25.97
2018-11-23T11:55:27.874Z,27.87
2018-11-23T11:57:56.226Z,26.23
2018-11-23T12:00:25.353Z,27.60
2018-11-23T12:02:53.694Z,27.03
2018-11-23T12:05:22.041Z,27.00
2018-11-23T12:07:50.480Z,26.20
2018-11-23T12:10:18.822Z,28.03
2018-11-23T12:12:48.043Z,26.87
2018-11-23T12:15:16.401Z,25.57
2018-11-23T12:17:44.730Z,25.23
2018-11-23T12:20:13.095Z,25.17
2018-11-23T12:22:41.429Z,25.80
2018-11-23T12:25:09.889Z,24.47
2018-11-23T12:27:38.211Z,26.03
2018-11-23T12:30:07.489Z,23.57
2018-11-23T12:32:35.845Z,25.57
2018-11-23T12:35:04.215Z,24.73
2018-11-23T12:37:32.621Z,25.33
2018-11-23T12:40:00.979Z,26.17
2018-11-23T12:42:29.358Z,25.10
2018-11-23T12:44:57.735Z,24.07
2018-11-23T12:47:26.114Z,25.83
2018-11-23T12:49:54.460Z,24.63
2018-11-23T12:52:22.811Z,24.03
2018-11-23T12:54:51.937Z,24.23
2018-11-23T12:57:21.211Z,25.57
2018-11-23T12:59:49.615Z,24.37
2018-11-23T13:02:17.970Z,24.90
2018-11-23T13:04:46.312Z,26.20
2018-11-23T13:07:14.707Z,24.70
2018-11-23T13:09:43.130Z,24.00
2018-11-23T13:12:12.285Z,24.37
2018-11-23T13:14:40.643Z,23.77
2018-11-23T13:17:09.145Z,24.43
2018-11-23T13:19:37.577Z,25.10
2018-11-23T13:22:05.960Z,24.73
2018-11-23T13:24:34.340Z,24.67
2018-11-23T13:27:02.677Z,25.47
2018-11-23T13:29:31.215Z,23.43
2018-11-23T13:32:00.226Z,21.87
2018-11-23T13:34:27.917Z,23.47
2018-11-23T13:36:56.247Z,23.50
2018-11-23T13:39:24.657Z,24.23
2018-11-23T13:41:53.006Z,22.90
2018-11-23T13:44:21.448Z,23.83
2018-11-23T13:46:50.604Z,24.87
2018-11-23T13:49:19.075Z,24.83
2018-11-23T13:51:47.469Z,24.87
2018-11-23T13:54:16.631Z,24.43
2018-11-23T13:56:44.987Z,24.17
2018-11-23T13:59:13.358Z,23.83
2018-11-23T14:01:41.766Z,23.80
2018-11-23T14:04:10.181Z,25.40
2018-11-23T14:06:38.534Z,23.77
2018-11-23T14:09:07.101Z,23.67
2018-11-23T14:11:36.227Z,23.37
2018-11-23T14:14:04.843Z,23.07
2018-11-23T14:16:33.349Z,23.53
2018-11-23T14:19:02.493Z,23.67
2018-11-23T14:21:30.955Z,23.53
2018-11-23T14:23:59.411Z,24.00
2018-11-23T14:26:27.825Z,23.77
2018-11-23T14:28:56.230Z,22.53
2018-11-23T14:31:24.605Z,23.30
2018-11-23T14:33:52.973Z,24.07
2018-11-23T14:36:21.457Z,23.80
2018-11-23T14:38:49.818Z,23.20
2018-11-23T14:41:18.209Z,22.90
2018-11-23T14:43:46.531Z,22.77
2018-11-23T14:46:14.901Z,24.07
2018-11-23T14:48:43.283Z,22.60
2018-11-23T14:51:12.523Z,23.33
2018-11-23T14:53:41.695Z,23.03
2018-11-23T14:56:10.129Z,23.53
2018-11-23T14:58:38.518Z,24.43
2018-11-23T15:01:06.985Z,23.10
2018-11-23T15:03:35.453Z,22.20
2018-11-23T15:06:03.814Z,23.87
2018-11-23T15:08:32.355Z,21.50
2018-11-23T15:11:01.037Z,22.77
2018-11-23T15:13:29.437Z,23.47
2018-11-23T15:15:57.838Z,23.73
2018-11-23T15:18:26.343Z,23.17
2018-11-23T15:20:55.541Z,23.90
2018-11-23T15:23:23.951Z,22.60
2018-11-23T15:25:52.669Z,23.10
2018-11-23T15:28:21.005Z,24.43
2018-11-23T15:30:49.595Z,22.60
2018-11-23T15:33:17.916Z,23.17
2018-11-23T15:35:46.291Z,22.83
2018-11-23T15:38:14.650Z,25.10
2018-11-23T15:40:42.994Z,23.33
2018-11-23T15:43:11.359Z,24.33
2018-11-23T15:45:39.751Z,22.83
2018-11-23T15:48:08.094Z,23.13
2018-11-23T15:50:37.242Z,22.83
2018-11-23T15:53:05.593Z,24.93
2018-11-23T15:55:33.934Z,24.50
2018-11-23T15:58:02.608Z,25.37
2018-11-23T16:00:32.495Z,24.43
2018-11-23T16:03:00.844Z,24.93
2018-11-23T16:05:29.992Z,24.93
2018-11-23T16:07:58.328Z,25.57
2018-11-23T16:10:26.670Z,24.70
2018-11-23T16:12:55.102Z,23.07
2018-11-23T16:15:23.434Z,23.33
2018-11-23T16:17:52.585Z,25.03
2018-11-23T16:20:20.959Z,22.70
2018-11-23T16:22:49.458Z,25.07
2018-11-23T16:25:17.839Z,23.93
2018-11-23T16:27:46.212Z,23.53
2018-11-23T16:30:14.562Z,24.87
2018-11-23T16:32:43.067Z,23.37
2018-11-23T16:35:11.423Z,25.80
2018-11-23T16:37:39.787Z,34.00
2018-11-23T16:40:08.924Z,34.70
2018-11-23T16:42:37.262Z,26.47
2018-11-23T16:45:06.428Z,25.07
2018-11-23T16:47:34.787Z,24.03
2018-11-23T16:50:03.423Z,24.27
2018-11-23T16:52:31.751Z,24.50
2018-11-23T16:55:00.114Z,24.77
2018-11-23T16:57:28.509Z,26.13
2018-11-23T16:59:56.847Z,25.03
2018-11-23T17:02:25.181Z,23.60
2018-11-23T17:04:53.642Z,23.17
2018-11-23T17:07:21.987Z,24.80
2018-11-23T17:09:50.395Z,24.30
2018-11-23T17:12:18.733Z,24.37
2018-11-23T17:14:47.897Z,23.93
2018-11-23T17:17:16.245Z,24.07
2018-11-23T17:19:44.639Z,22.93
2018-11-23T17:22:12.971Z,24.57
2018-11-23T17:24:42.091Z,25.17
2018-11-23T17:27:10.466Z,25.53
2018-11-23T17:29:39.553Z,26.50
2018-11-23T17:32:08.785Z,25.83
2018-11-23T17:34:37.128Z,25.10
2018-11-23T17:37:06.350Z,23.57
2018-11-23T17:39:34.721Z,24.17
2018-11-23T17:42:03.123Z,36.23
2018-11-23T17:44:31.502Z,55.63
2018-11-23T17:46:59.827Z,43.53
2018-11-23T17:49:28.972Z,32.60
2018-11-23T17:51:57.664Z,26.83
2018-11-23T17:54:25.998Z,26.17
2018-11-23T17:56:55.082Z,24.27
2018-11-23T17:59:23.436Z,25.30
2018-11-23T18:01:51.786Z,24.67
2018-11-23T18:04:20.161Z,25.77
2018-11-23T18:06:48.549Z,25.97
2018-11-23T18:09:16.896Z,25.13
2018-11-23T18:11:46.011Z,25.03
2018-11-23T18:14:14.491Z,25.37
2018-11-23T18:16:42.871Z,25.20
2018-11-23T18:19:11.228Z,27.07
2018-11-23T18:21:40.343Z,25.10
2018-11-23T18:24:08.726Z,34.97
2018-11-23T18:26:37.103Z,37.90
2018-11-23T18:29:05.459Z,30.77
2018-11-23T18:31:35.027Z,26.90
2018-11-23T18:34:03.388Z,27.33
2018-11-23T18:36:32.054Z,26.70
2018-11-23T18:39:00.380Z,25.97
2018-11-23T18:41:28.825Z,26.63
2018-11-23T18:43:57.232Z,27.17
2018-11-23T18:46:25.565Z,25.40
2018-11-23T18:48:54.108Z,26.20
2018-11-23T18:51:22.545Z,27.73
2018-11-23T18:53:50.877Z,28.73
2018-11-23T18:56:19.411Z,28.10
2018-11-23T18:58:47.780Z,27.33
2018-11-23T19:01:16.284Z,29.03
2018-11-23T19:03:44.672Z,28.70
2018-11-23T19:06:13.015Z,32.23
2018-11-23T19:08:42.115Z,35.77
2018-11-23T19:13:53.435Z,29.57
2018-11-23T19:16:21.819Z,29.60
2018-11-23T19:18:50.177Z,26.27
2018-11-23T19:21:18.563Z,27.90
2018-11-23T19:23:46.953Z,28.43
2018-11-23T19:26:15.272Z,30.10
2018-11-23T19:28:43.631Z,29.43
2018-11-23T19:31:11.971Z,29.20
2018-11-23T19:33:40.326Z,26.63
2018-11-23T19:36:08.720Z,28.50
2018-11-23T19:38:37.096Z,30.20
2018-11-23T19:41:05.444Z,28.87
2018-11-23T19:43:33.892Z,28.97
2018-11-23T19:46:02.257Z,29.60
2018-11-23T19:48:30.605Z,30.33
2018-11-23T19:50:59.718Z,32.00
2018-11-23T19:53:28.113Z,31.37
2018-11-23T19:55:56.493Z,29.47
2018-11-23T19:58:24.829Z,27.97
2018-11-23T20:00:54.012Z,30.07
2018-11-23T20:03:22.456Z,29.23
2018-11-23T20:05:50.835Z,28.60
2018-11-23T20:08:19.220Z,29.60
2018-11-23T20:10:47.569Z,30.67
2018-11-23T20:13:16.687Z,28.30
2018-11-23T20:15:45.016Z,28.87
2018-11-23T20:18:14.142Z,28.77
2018-11-23T20:20:42.516Z,40.57
2018-11-23T20:23:10.854Z,33.70
2018-11-23T20:25:39.326Z,30.03
2018-11-23T20:28:07.670Z,28.73
2018-11-23T20:30:42.324Z,28.43
2018-11-23T20:33:04.367Z,29.67
2018-11-23T20:35:32.816Z,30.60
2018-11-23T20:38:01.270Z,29.83
2018-11-23T20:40:30.366Z,28.47
2018-11-23T20:42:58.881Z,28.97
2018-11-23T20:45:27.210Z,29.70
2018-11-23T20:47:56.554Z,28.37
2018-11-23T20:50:24.954Z,28.97
2018-11-23T20:52:53.334Z,27.13
2018-11-23T20:55:21.789Z,30.63
2018-11-23T20:57:50.165Z,29.17
2018-11-23T21:00:18.526Z,37.93
2018-11-23T21:02:47.627Z,34.63
2018-11-23T21:05:16.151Z,30.63
2018-11-23T21:07:44.471Z,28.80
2018-11-23T21:10:19.942Z,29.77
2018-11-23T21:12:41.961Z,30.00
2018-11-23T21:15:10.366Z,29.30
2018-11-23T21:17:38.703Z,29.13
2018-11-23T21:20:07.151Z,38.80
2018-11-23T21:22:35.499Z,35.23
2018-11-23T21:25:03.918Z,31.73
2018-11-23T21:27:32.290Z,31.60
2018-11-23T21:30:00.653Z,28.97
2018-11-23T21:32:29.069Z,29.73
2018-11-23T21:34:57.470Z,31.83
2018-11-23T21:37:25.840Z,34.30
2018-11-23T21:39:54.224Z,33.63
2018-11-23T21:42:23.339Z,29.47
2018-11-23T21:44:51.690Z,31.73
2018-11-23T21:47:20.207Z,29.13
2018-11-23T21:49:48.551Z,30.43
2018-11-23T21:52:16.900Z,31.33
2018-11-23T21:54:45.371Z,32.87
2018-11-23T21:57:13.695Z,31.73
2018-11-23T21:59:42.114Z,30.97
2018-11-23T22:02:10.491Z,29.33
2018-11-23T22:04:38.981Z,29.47
2018-11-23T22:07:07.359Z,28.63
2018-11-23T22:09:35.717Z,32.23
2018-11-23T22:12:04.843Z,28.73
2018-11-23T22:14:33.190Z,34.03
2018-11-23T22:17:01.535Z,31.70
2018-11-23T22:19:29.875Z,27.67
2018-11-23T22:21:58.262Z,27.93
2018-11-23T22:24:26.608Z,27.93
2018-11-23T22:26:54.987Z,29.70
2018-11-23T22:29:24.817Z,28.60
2018-11-23T22:31:53.721Z,30.80
2018-11-23T22:34:22.278Z,29.60
2018-11-23T22:36:50.613Z,29.67
2018-11-23T22:39:18.966Z,29.80
2018-11-23T22:41:47.349Z,31.00
2018-11-23T22:44:15.810Z,28.93
2018-11-23T22:46:44.457Z,33.57
2018-11-23T22:49:13.612Z,32.13
2018-11-23T22:51:41.945Z,28.73
2018-11-23T22:54:11.033Z,29.77
2018-11-23T22:56:40.142Z,29.50
2018-11-23T22:59:08.495Z,29.50
2018-11-23T23:01:36.857Z,29.87
2018-11-23T23:04:05.232Z,29.73
2018-11-23T23:06:33.721Z,30.20
2018-11-23T23:09:02.051Z,29.17
2018-11-23T23:11:30.449Z,30.40
2018-11-23T23:13:58.819Z,30.13
2018-11-23T23:16:27.164Z,29.53
2018-11-23T23:18:56.295Z,29.80
2018-11-23T23:21:24.630Z,30.07
2018-11-23T23:23:53.083Z,30.00
2018-11-23T23:26:21.449Z,30.63
2018-11-23T23:28:49.833Z,30.07
2018-11-23T23:31:18.177Z,29.70
2018-11-23T23:33:46.501Z,27.73
2018-11-23T23:36:14.855Z,29.80
2018-11-23T23:38:43.225Z,30.40
2018-11-23T23:41:11.618Z,30.87
2018-11-23T23:43:39.939Z,29.80
2018-11-23T23:46:08.302Z,30.23
2018-11-23T23:48:36.649Z,31.00
2018-11-23T23:51:05.016Z,30.20
2018-11-23T23:53:33.429Z,31.20
2018-11-23T23:56:01.823Z,31.60
2018-11-23T23:58:30.163Z,30.50
